METAR Data
IDs: Format: Raw Decoded Include TAF

Data at: 0853 UTC 07 Dec 2021

KVRB 070828Z AUTO 00000KT 1/2SM FG CLR 15/15 A3006 RMK AO2 T01500150 $
KVRB 070816Z AUTO 00000KT 1 1/2SM BR CLR 16/16 A3006 RMK AO2 T01610156 $
KVRB 070805Z AUTO 00000KT 3SM BR CLR 16/16 A3006 RMK AO2 T01610156 $
KVRB 070802Z AUTO 00000KT 1SM BR CLR 16/15 A3006 RMK AO2 T01560150 $
KVRB 070752Z AUTO 00000KT 1/4SM FG CLR 16/16 A3006 RMK AO2 SLP178 T01560156 $
KVRB 070751Z AUTO 00000KT 1/4SM FG CLR 16/16 A3006 RMK AO2 $
KVRB 070743Z AUTO 00000KT 1 1/4SM BR CLR 17/16 A3006 RMK AO2 T01670161 $
KVRB 070653Z AUTO 28004KT 10SM CLR 16/16 A3006 RMK AO2 SLP178 T01610156 $
KVRB 070553Z AUTO 28003KT 10SM CLR 18/17 A3006 RMK AO2 SLP179 T01780167 10222 20178 58009 $
KVRB 070453Z AUTO 28007KT 10SM CLR 19/18 A3009 RMK AO2 SLP187 T01890178 402610144 TSNO $
KVRB 070409Z AUTO 28006KT 7SM CLR 19/19 A3010 RMK AO2 T01890189 $
KVRB 070402Z AUTO 26005KT 2 1/2SM BR CLR 19/19 A3010 RMK AO2 T01940189 $
KVRB 070353Z AUTO 27005KT 4SM BR CLR 19/19 A3010 RMK AO2 SLP192 T01940194 $
KVRB 070253Z AUTO 27005KT 6SM BR CLR 20/19 A3009 RMK AO2 SLP189 T02000194 51008
KVRB 070153Z 25003KT 8SM FEW070 20/19 A3009 RMK AO2 SLP188 T02000194
KVRB 070053Z 00000KT 10SM BKN070 21/21 A3008 RMK AO2 SLP184 T02110206
KVRB 062353Z 00000KT 10SM FEW070 22/21 A3007 RMK AO2 SLP181 60001 T02170211 10261 20217 51012
KVRB 062253Z 14003KT 10SM CLR 23/21 A3006 RMK AO2 SLP176 T02280211
KVRB 062156Z 12006KT 10SM CLR 24/22 A3005 RMK AO2 T02440217
KVRB 062153Z AUTO 11005KT 10SM CLR 24/22 A3005 RMK AO2 SLP176 T02440217
KVRB 062053Z VRB03KT 10SM BKN060 26/22 A3003 RMK AO2 SLP169 60001 T02610217 56022
KVRB 061953Z 15004KT 10SM SCT033 OVC048 24/22 A3006 RMK AO2 SLP178 T02440222
KVRB 061900Z 00000KT 10SM FEW029 OVC037 24/22 A3007 RMK AO2 T02440217
KVRB 061853Z 00000KT 10SM BKN023 BKN028 OVC042 24/22 A3007 RMK AO2 RAE06 SLP181 P0001 T02440217
KVRB 061753Z 24004KT 3SM -RA BR BKN023 BKN028 OVC042 23/22 A3010 RMK AO2 RAB33 SLP191 P0004 60004 T02280217 10244 20144 58021
KVRB 061745Z 25007KT 3SM RA BR BKN023 BKN030 OVC036 23/22 A3010 RMK AO2 RAB33 P0001 T02280217
KVRB 061739Z 28005KT 1 3/4SM RA BR SCT023 BKN033 23/22 A3010 RMK AO2 VIS 1V5 RAB33 P0000 T02330217
KVRB 061653Z 07003KT 9SM FEW009 BKN035 OVC042 24/22 A3012 RMK AO2 RAB11E23 SLP197 P0000 T02440222
KVRB 061649Z 05003KT 10SM FEW009 BKN034 OVC043 24/22 A3011 RMK AO2 RAB11E23 P0000
KVRB 061616Z 00000KT 3SM -RA BR FEW011 BKN027 OVC035 24/22 A3014 RMK AO2 RAB11 P0000 T02440222
KVRB 061553Z 00000KT 10SM BKN035 BKN042 24/22 A3015 RMK AO2 SLP209 T02440217
KVRB 061453Z 04003KT 10SM BKN031 OVC060 24/22 A3016 RMK AO2 SLP213 T02390217 53013
KVRB 061353Z 36003KT 10SM CLR 23/21 A3015 RMK AO2 SLP209 T02280211 $
KVRB 061322Z 00000KT 10SM CLR 20/20 A3015 RMK AO2 T02000200 $
KVRB 061253Z 00000KT 3/4SM BR VV002 17/17 A3013 RMK AO2 SLP202 T01670167 $
KVRB 061201Z 00000KT 1/4SM FG VV002 14/14 A3012 RMK AO2 T01440144 $
KVRB 061153Z AUTO 00000KT 1/2SM FG VV002 16/16 A3013 RMK AO2 SLP200 70004 T01560156 10167 20144 51007 $
KVRB 061146Z AUTO 00000KT 1/2SM FG VV002 16/16 A3013 RMK AO2 T01560156 $
KVRB 061134Z AUTO 00000KT 1/4SM FG VV002 15/15 A3012 RMK AO2 T01500150 $
KVRB 061110Z AUTO 00000KT 1/4SM FG VV001 16/16 A3012 RMK AO2 T01560156 $
KVRB 061053Z AUTO 00000KT 1/2SM FG VV002 15/14 A3012 RMK AO2 SLP197 T01500144 $
KVRB 061050Z AUTO 00000KT 1/2SM FG VV002 15/15 A3011 RMK AO2 $
KVRB 061021Z AUTO 00000KT 1/4SM FG VV002 15/15 A3011 RMK AO2 T01500150 $
KVRB 061007Z AUTO 00000KT 1/2SM FG VV002 16/16 A3011 RMK AO2 T01560156 $
KVRB 060953Z AUTO 00000KT 1/4SM FG VV002 15/15 A3010 RMK AO2 SLP193 T01500150 $
KVRB 060945Z AUTO 00000KT 1/2SM FG VV002 14/14 A3010 RMK AO2 T01440144 $
KVRB 060853Z AUTO 00000KT 1/4SM FG VV002 16/15 A3011 RMK AO2 SLP194 T01560150 55005
KVRB 060851Z AUTO 00000KT 1/4SM FG VV002 16/15 A3011 RMK AO2
KVRB 060842Z AUTO 00000KT 1/2SM FG VV002 16/15 A3011 RMK AO2 T01560150
KVRB 060829Z AUTO 00000KT 1/4SM FG VV002 16/16 A3011 RMK AO2 T01560156
KVRB 060753Z AUTO 00000KT 1/4SM FG VV001 15/15 A3011 RMK AO2 SLP196 T01500150
KVRB 060653Z AUTO 00000KT 1/4SM FG VV001 16/16 A3012 RMK AO2 SLP199 T01560156
KVRB 060553Z AUTO 00000KT 1/4SM FG VV001 16/16 A3012 RMK AO2 SLP199 T01610161 10217 20161 58006
KVRB 060453Z AUTO 00000KT 1/4SM FG VV001 17/17 A3014 RMK AO2 SLP204 T01670167 402610122
KVRB 060423Z AUTO 00000KT 1/4SM FG VV001 18/17 A3015 RMK AO2 T01780172
KVRB 060414Z AUTO 00000KT 1 1/4SM BR OVC002 18/17 A3015 RMK AO2 T01780172
KVRB 060353Z AUTO 00000KT 1/4SM FG VV002 18/17 A3015 RMK AO2 SLP208 T01780172
KVRB 060300Z AUTO 00000KT 1/4SM FG VV003 19/19 A3014 RMK AO2 T01890189
KVRB 060253Z AUTO 00000KT 10SM SCT002 19/19 A3014 RMK AO2 SLP205 T01890189 50005
KVRB 060229Z AUTO 00000KT 10SM FEW003 19/19 A3014 RMK AO2 T01940189
KVRB 060153Z 00000KT 10SM SCT022 OVC060 21/20 A3014 RMK AO2 SLP206 T02060200
KVRB 060135Z 00000KT 10SM SCT026 BKN042 21/19 A3014 RMK AO2 T02060194
KVRB 060127Z 00000KT 1 3/4SM BR SCT026 BKN042 21/20 A3014 RMK AO2 VIS 1/2V4 T02060200
KVRB 060053Z 00000KT 9SM FEW026 BKN040 21/21 A3014 RMK AO2 SLP203 T02110206
KVRB 052353Z 03004KT 10SM SCT038 BKN050 22/21 A3013 RMK AO2 RAE06 SLP200 P0000 60004 T02170206 10244 20217 53005
KVRB 052253Z COR 03006KT 4SM -RA BKN023 BKN055 22/21 A3011 RMK AO2 RAB46 SLP196 P0000 T02170206
KVRB 052153Z 02009KT 10SM SCT023 BKN055 23/19 A3011 RMK AO2 SLP195 T02280194